createdAt,value
2018-09-26T00:01:22.435Z,6.89
2018-09-26T00:03:53.928Z,6.78
2018-09-26T00:06:22.634Z,6.73
2018-09-26T00:08:51.222Z,6.69
2018-09-26T00:11:19.795Z,6.71
2018-09-26T00:13:48.374Z,6.76
2018-09-26T00:16:17.005Z,6.71
2018-09-26T00:18:45.586Z,6.80
2018-09-26T00:21:14.126Z,6.81
2018-09-26T00:23:42.720Z,6.75
2018-09-26T00:26:11.673Z,6.76
2018-09-26T00:28:40.189Z,6.78
2018-09-26T00:31:09.615Z,6.69
2018-09-26T00:33:38.409Z,6.72
2018-09-26T00:36:07.070Z,6.78
2018-09-26T00:38:35.522Z,6.75
2018-09-26T00:41:04.133Z,6.75
2018-09-26T00:43:32.745Z,6.60
2018-09-26T00:46:01.306Z,6.56
2018-09-26T00:48:29.853Z,6.40
2018-09-26T00:50:58.521Z,6.38
2018-09-26T00:53:27.002Z,6.36
2018-09-26T00:55:55.525Z,6.36
2018-09-26T00:58:23.964Z,6.38
2018-09-26T01:00:52.516Z,6.37
2018-09-26T01:03:21.163Z,6.35
2018-09-26T01:05:49.669Z,6.29
2018-09-26T01:08:18.228Z,6.23
2018-09-26T01:10:46.771Z,6.27
2018-09-26T01:13:15.258Z,6.25
2018-09-26T01:15:44.260Z,6.28
2018-09-26T01:18:13.014Z,6.27
2018-09-26T01:20:43.944Z,6.23
2018-09-26T01:23:12.740Z,6.15
2018-09-26T01:25:41.836Z,6.06
2018-09-26T01:28:11.802Z,6.08
2018-09-26T01:30:40.298Z,6.05
2018-09-26T01:33:09.037Z,6.04
2018-09-26T01:35:37.561Z,5.93
2018-09-26T01:38:06.481Z,5.86
2018-09-26T01:40:35.130Z,5.81
2018-09-26T01:43:03.617Z,5.80
2018-09-26T01:45:32.114Z,5.83
2018-09-26T01:48:00.582Z,5.82
2018-09-26T01:50:29.058Z,5.81
2018-09-26T01:52:57.959Z,5.72
2018-09-26T01:55:26.446Z,5.71
2018-09-26T01:57:54.959Z,5.68
2018-09-26T02:00:23.516Z,5.65
2018-09-26T02:02:52.111Z,5.77
2018-09-26T02:05:20.801Z,5.77
2018-09-26T02:07:50.269Z,5.80
2018-09-26T02:10:18.822Z,5.80
2018-09-26T02:12:47.300Z,5.72
2018-09-26T02:15:15.847Z,5.63
2018-09-26T02:17:44.766Z,5.62
2018-09-26T02:20:13.306Z,5.57
2018-09-26T02:22:41.782Z,5.55
2018-09-26T02:25:10.649Z,5.48
2018-09-26T02:27:39.182Z,5.51
2018-09-26T02:30:08.745Z,5.49
2018-09-26T02:32:37.319Z,5.58
2018-09-26T02:35:05.942Z,5.72
2018-09-26T02:37:34.469Z,5.75
2018-09-26T02:40:03.018Z,5.66
2018-09-26T02:43:35.463Z,5.73
2018-09-26T02:46:03.983Z,5.77
2018-09-26T02:48:38.029Z,5.79
2018-09-26T02:51:06.583Z,5.67
2018-09-26T02:53:35.131Z,5.71
2018-09-26T02:56:03.614Z,5.58
2018-09-26T02:58:32.142Z,5.58
2018-09-26T03:01:00.654Z,5.51
2018-09-26T03:03:29.199Z,5.39
2018-09-26T03:05:57.638Z,5.35
2018-09-26T03:08:26.126Z,5.42
2018-09-26T03:10:54.651Z,5.44
2018-09-26T03:13:23.165Z,5.39
2018-09-26T03:15:51.710Z,5.33
2018-09-26T03:18:20.271Z,5.30
2018-09-26T03:20:49.004Z,5.38
2018-09-26T03:23:17.818Z,5.33
2018-09-26T03:25:46.310Z,5.33
2018-09-26T03:28:14.801Z,5.26
2018-09-26T03:30:43.300Z,5.35
2018-09-26T03:33:12.043Z,5.28
2018-09-26T03:35:40.550Z,5.39
2018-09-26T03:38:09.455Z,5.34
2018-09-26T03:40:38.038Z,5.40
2018-09-26T03:43:06.770Z,5.37
2018-09-26T03:45:35.872Z,5.40
2018-09-26T03:48:04.549Z,5.39
2018-09-26T03:50:37.179Z,5.39
2018-09-26T03:53:07.733Z,5.27
2018-09-26T03:55:39.522Z,5.26
2018-09-26T03:58:08.461Z,5.23
2018-09-26T04:00:36.986Z,5.12
2018-09-26T04:03:05.795Z,5.14
2018-09-26T04:05:34.296Z,5.17
2018-09-26T04:08:02.822Z,5.25
2018-09-26T04:10:31.415Z,5.29
2018-09-26T04:13:04.345Z,5.30
2018-09-26T04:15:37.024Z,5.28
2018-09-26T04:18:05.843Z,5.22
2018-09-26T04:20:34.426Z,5.14
2018-09-26T04:23:02.870Z,5.18
2018-09-26T04:25:31.392Z,5.21
2018-09-26T04:27:59.865Z,5.32
2018-09-26T04:30:28.386Z,5.36
2018-09-26T04:32:57.325Z,5.31
2018-09-26T04:35:25.707Z,5.24
2018-09-26T04:37:54.450Z,5.20
2018-09-26T04:40:23.034Z,5.09
2018-09-26T04:42:51.610Z,5.12
2018-09-26T04:45:20.205Z,5.07
2018-09-26T04:47:48.745Z,5.06
2018-09-26T04:50:17.241Z,5.04
2018-09-26T04:52:46.611Z,5.23
2018-09-26T04:55:15.266Z,5.21
2018-09-26T04:57:43.914Z,5.11
2018-09-26T05:00:12.503Z,5.10
2018-09-26T05:02:41.309Z,5.15
2018-09-26T05:05:10.485Z,5.13
2018-09-26T05:07:38.921Z,5.06
2018-09-26T05:10:07.946Z,5.04
2018-09-26T05:12:36.462Z,4.89
2018-09-26T05:15:06.201Z,4.76
2018-09-26T05:17:34.877Z,4.73
2018-09-26T05:20:03.437Z,4.69
2018-09-26T05:22:32.182Z,4.76
2018-09-26T05:25:00.674Z,4.80
2018-09-26T05:27:29.206Z,4.77
2018-09-26T05:29:57.877Z,4.81
2018-09-26T05:32:26.427Z,4.90
2018-09-26T05:34:54.929Z,5.02
2018-09-26T05:37:23.363Z,5.13
2018-09-26T05:39:51.894Z,5.16
2018-09-26T05:42:20.627Z,5.32
2018-09-26T05:44:49.159Z,5.33
2018-09-26T05:47:17.716Z,5.38
2018-09-26T05:49:46.828Z,5.36
2018-09-26T05:52:15.304Z,5.39
2018-09-26T05:54:44.000Z,5.42
2018-09-26T05:57:12.630Z,5.49
2018-09-26T05:59:41.427Z,5.59
2018-09-26T06:02:10.359Z,5.75
2018-09-26T06:04:38.945Z,5.73
2018-09-26T06:07:07.654Z,5.79
2018-09-26T06:09:36.178Z,5.82
2018-09-26T06:12:04.800Z,5.85
2018-09-26T06:14:33.303Z,5.92
2018-09-26T06:17:02.809Z,5.98
2018-09-26T06:19:31.242Z,6.04
2018-09-26T06:21:59.757Z,6.17
2018-09-26T06:24:28.263Z,6.36
2018-09-26T06:26:56.842Z,6.40
2018-09-26T06:29:25.400Z,6.54
2018-09-26T06:31:53.924Z,6.64
2018-09-26T06:34:22.422Z,6.74
2018-09-26T06:36:51.001Z,6.84
2018-09-26T06:39:19.495Z,6.91
2018-09-26T06:41:48.079Z,6.96
2018-09-26T06:44:16.699Z,7.06
2018-09-26T06:46:45.220Z,7.17
2018-09-26T06:49:13.757Z,7.25
2018-09-26T06:51:42.369Z,7.33
2018-09-26T06:54:11.284Z,7.50
2018-09-26T06:56:39.714Z,7.61
2018-09-26T06:59:08.408Z,7.77
2018-09-26T07:01:36.938Z,7.93
2018-09-26T07:04:05.453Z,8.03
2018-09-26T07:06:33.932Z,8.17
2018-09-26T07:09:02.433Z,8.31
2018-09-26T07:11:30.942Z,8.46
2018-09-26T07:13:59.529Z,8.71
2018-09-26T07:16:28.106Z,8.75
2018-09-26T07:18:56.671Z,8.78
2018-09-26T07:21:25.406Z,8.98
2018-09-26T07:23:53.981Z,9.15
2018-09-26T07:26:22.519Z,9.19
2018-09-26T07:28:50.980Z,9.38
2018-09-26T07:31:19.571Z,9.42
2018-09-26T07:33:48.135Z,9.51
2018-09-26T07:36:16.655Z,9.73
2018-09-26T07:38:45.294Z,9.88
2018-09-26T07:41:14.024Z,9.96
2018-09-26T07:43:42.777Z,10.03
2018-09-26T07:46:11.426Z,10.19
2018-09-26T07:48:40.181Z,10.21
2018-09-26T07:51:08.735Z,10.27
2018-09-26T07:53:37.299Z,10.44
2018-09-26T07:56:05.865Z,10.59
2018-09-26T07:58:34.485Z,10.72
2018-09-26T08:01:02.962Z,10.76
2018-09-26T08:03:31.502Z,10.70
2018-09-26T08:06:00.442Z,10.85
2018-09-26T08:08:28.944Z,10.88
2018-09-26T08:10:57.400Z,10.87
2018-09-26T08:13:25.901Z,11.02
2018-09-26T08:15:54.338Z,11.05
2018-09-26T08:18:23.021Z,11.20
2018-09-26T08:20:51.563Z,11.29
2018-09-26T08:23:20.097Z,11.42
2018-09-26T08:25:48.593Z,11.50
2018-09-26T08:28:17.137Z,11.50
2018-09-26T08:30:45.887Z,11.59
2018-09-26T08:33:14.390Z,11.61
2018-09-26T08:35:42.860Z,11.64
2018-09-26T08:38:11.454Z,11.71
2018-09-26T08:40:40.015Z,11.83
2018-09-26T08:43:08.583Z,11.88
2018-09-26T08:45:37.049Z,11.93
2018-09-26T08:48:05.573Z,12.02
2018-09-26T08:50:34.021Z,12.12
2018-09-26T08:53:02.557Z,12.28
2018-09-26T08:55:30.986Z,12.35
2018-09-26T08:57:59.486Z,12.52
2018-09-26T09:00:33.050Z,12.72
2018-09-26T09:03:01.651Z,12.88
2018-09-26T09:05:30.496Z,13.01
2018-09-26T09:08:00.771Z,13.17
2018-09-26T09:10:29.290Z,13.35
2018-09-26T09:12:57.875Z,13.44
2018-09-26T09:15:27.222Z,13.62
2018-09-26T09:17:55.697Z,13.61
2018-09-26T09:20:24.619Z,13.77
2018-09-26T09:22:52.991Z,14.00
2018-09-26T09:25:21.601Z,14.35
2018-09-26T09:27:50.098Z,14.52
2018-09-26T09:30:18.579Z,14.91
2018-09-26T09:32:47.190Z,15.67
2018-09-26T09:35:15.729Z,16.35
2018-09-26T09:37:44.204Z,17.22
2018-09-26T09:40:12.909Z,17.52
2018-09-26T09:42:41.478Z,18.04
2018-09-26T09:45:10.438Z,18.63
2018-09-26T09:47:38.922Z,18.84
2018-09-26T09:50:07.729Z,19.29
2018-09-26T09:52:36.248Z,20.00
2018-09-26T09:55:04.758Z,19.75
2018-09-26T09:57:33.206Z,19.74
2018-09-26T10:00:01.792Z,20.37
2018-09-26T10:02:30.429Z,21.29
2018-09-26T10:04:58.937Z,21.72
2018-09-26T10:07:27.402Z,21.20
2018-09-26T10:09:56.233Z,21.40
2018-09-26T10:12:24.669Z,21.26
2018-09-26T10:14:53.164Z,22.09
2018-09-26T10:17:21.675Z,21.96
2018-09-26T10:19:50.166Z,22.73
2018-09-26T10:22:18.765Z,22.88
2018-09-26T10:24:47.322Z,23.36
2018-09-26T10:27:15.753Z,23.16
2018-09-26T10:29:44.436Z,23.42
2018-09-26T10:32:13.034Z,23.59
2018-09-26T10:34:41.543Z,23.48
2018-09-26T10:37:10.143Z,24.04
2018-09-26T10:39:38.920Z,24.29
2018-09-26T10:42:07.601Z,25.05
2018-09-26T10:44:36.083Z,25.54
2018-09-26T10:47:04.559Z,24.94
2018-09-26T10:49:33.064Z,25.25
2018-09-26T10:52:01.501Z,25.29
2018-09-26T10:54:30.023Z,25.98
2018-09-26T10:56:58.474Z,26.12
2018-09-26T10:59:26.986Z,26.37
2018-09-26T11:01:55.487Z,26.82
2018-09-26T11:04:24.107Z,27.39
2018-09-26T11:06:52.602Z,27.98
2018-09-26T11:09:21.110Z,27.35
2018-09-26T11:11:49.602Z,27.63
2018-09-26T11:14:18.260Z,27.72
2018-09-26T11:16:46.791Z,28.52
2018-09-26T11:19:15.309Z,28.90
2018-09-26T11:21:43.833Z,29.43
2018-09-26T11:24:12.302Z,29.53
2018-09-26T11:26:40.856Z,30.14
2018-09-26T11:29:09.784Z,30.56
2018-09-26T11:31:38.500Z,31.01
2018-09-26T11:34:07.519Z,29.58
2018-09-26T11:36:36.063Z,30.13
2018-09-26T11:39:06.069Z,30.52
2018-09-26T11:41:34.636Z,31.29
2018-09-26T11:44:03.121Z,32.08
2018-09-26T11:46:31.617Z,32.18
2018-09-26T11:49:00.054Z,33.12
2018-09-26T11:51:28.553Z,32.95
2018-09-26T11:53:57.050Z,32.52
2018-09-26T11:56:25.868Z,32.23
2018-09-26T11:58:54.334Z,32.70
2018-09-26T12:01:22.773Z,33.38
2018-09-26T12:03:51.419Z,33.27
2018-09-26T12:06:20.042Z,32.90
2018-09-26T12:08:48.834Z,33.36
2018-09-26T12:11:17.334Z,34.09
2018-09-26T12:13:45.995Z,35.31
2018-09-26T12:16:14.488Z,35.24
2018-09-26T12:18:42.972Z,34.99
2018-09-26T12:21:11.585Z,35.72
2018-09-26T12:23:40.119Z,36.64
2018-09-26T12:26:08.714Z,36.02
2018-09-26T12:28:37.238Z,34.66
2018-09-26T12:31:05.668Z,35.15
2018-09-26T12:33:35.189Z,35.84
2018-09-26T12:36:03.768Z,37.01
2018-09-26T12:38:32.273Z,36.67
2018-09-26T12:41:00.754Z,37.48
2018-09-26T12:43:29.238Z,37.17
2018-09-26T12:45:57.698Z,36.88
2018-09-26T12:48:26.264Z,37.38
2018-09-26T12:50:54.642Z,37.77
2018-09-26T12:53:23.225Z,37.53
2018-09-26T12:55:51.634Z,37.71
2018-09-26T12:58:20.238Z,37.90
2018-09-26T13:00:48.727Z,37.63
2018-09-26T13:03:17.347Z,36.52
2018-09-26T13:05:45.986Z,36.66
2018-09-26T13:08:14.650Z,37.10
2018-09-26T13:10:43.125Z,38.64
2018-09-26T13:13:12.001Z,36.98
2018-09-26T13:15:40.601Z,38.27
2018-09-26T13:18:09.662Z,37.83
2018-09-26T13:20:38.176Z,39.22
2018-09-26T13:23:06.850Z,38.08
2018-09-26T13:25:35.390Z,39.38
2018-09-26T13:28:03.875Z,38.88
2018-09-26T13:30:32.403Z,39.61
2018-09-26T13:33:00.951Z,38.98
2018-09-26T13:35:29.474Z,40.11
2018-09-26T13:37:57.951Z,40.79
2018-09-26T13:40:26.505Z,40.39
2018-09-26T13:42:55.046Z,39.70
2018-09-26T13:45:23.551Z,39.97
2018-09-26T13:47:52.286Z,39.58
2018-09-26T13:50:20.854Z,39.60
2018-09-26T13:52:49.443Z,40.14
2018-09-26T13:55:17.980Z,39.94
2018-09-26T13:57:46.564Z,40.59
2018-09-26T14:00:16.654Z,40.61
2018-09-26T14:02:45.824Z,39.41
2018-09-26T14:05:14.360Z,39.95
2018-09-26T14:07:42.817Z,40.66
2018-09-26T14:10:11.377Z,40.69
2018-09-26T14:12:39.930Z,40.40
2018-09-26T14:15:08.505Z,40.69
2018-09-26T14:17:37.081Z,39.98
2018-09-26T14:20:22.318Z,38.83
2018-09-26T14:22:50.866Z,39.21
2018-09-26T14:25:19.551Z,39.28
2018-09-26T14:27:48.238Z,40.31
2018-09-26T14:30:16.916Z,39.66
2018-09-26T14:32:45.580Z,39.00
2018-09-26T14:35:14.223Z,39.73
2018-09-26T14:37:42.792Z,40.60
2018-09-26T14:40:11.759Z,41.61
2018-09-26T14:42:40.349Z,42.20
2018-09-26T14:45:09.060Z,41.16
2018-09-26T14:47:37.678Z,41.65
2018-09-26T14:50:07.220Z,40.91
2018-09-26T14:52:35.853Z,41.56
2018-09-26T14:55:04.489Z,41.10
2018-09-26T14:57:33.164Z,41.34
2018-09-26T15:00:01.892Z,41.35
2018-09-26T15:02:30.433Z,41.72
2018-09-26T15:04:59.090Z,41.31
2018-09-26T15:07:27.642Z,42.35
2018-09-26T15:09:56.355Z,42.13
2018-09-26T15:12:25.093Z,41.16
2018-09-26T15:14:53.782Z,41.31
2018-09-26T15:17:22.369Z,41.42
2018-09-26T15:19:51.104Z,41.59
2018-09-26T15:22:19.802Z,41.84
2018-09-26T15:24:48.354Z,41.73
2018-09-26T15:27:16.922Z,40.82
2018-09-26T15:29:45.706Z,40.41
2018-09-26T15:32:14.751Z,40.29
2018-09-26T15:34:43.303Z,41.20
2018-09-26T15:37:12.247Z,40.49
2018-09-26T15:39:40.795Z,40.15
2018-09-26T15:42:09.847Z,39.96
2018-09-26T15:44:38.478Z,39.78
2018-09-26T15:47:07.180Z,39.13
2018-09-26T15:49:35.767Z,40.19
2018-09-26T15:52:04.837Z,39.83
2018-09-26T15:54:33.481Z,39.27
2018-09-26T15:57:02.237Z,39.94
2018-09-26T15:59:30.941Z,39.25
2018-09-26T16:01:59.697Z,37.46
2018-09-26T16:04:28.265Z,36.34
2018-09-26T16:06:56.955Z,32.84
2018-09-26T16:09:25.411Z,29.65
2018-09-26T16:11:54.301Z,27.24
2018-09-26T16:14:22.868Z,26.10
2018-09-26T16:16:51.414Z,25.13
2018-09-26T16:19:20.020Z,24.42
2018-09-26T16:21:49.136Z,24.03
2018-09-26T16:24:17.758Z,23.75
2018-09-26T16:26:46.385Z,23.38
2018-09-26T16:29:15.049Z,23.20
2018-09-26T16:31:43.546Z,23.15
2018-09-26T16:34:12.354Z,23.34
2018-09-26T16:36:40.811Z,25.16
2018-09-26T16:39:11.742Z,27.97
2018-09-26T16:41:40.371Z,29.93
2018-09-26T16:44:09.016Z,29.67
2018-09-26T16:46:37.769Z,28.39
2018-09-26T16:49:06.341Z,26.91
2018-09-26T16:51:34.878Z,27.00
2018-09-26T16:54:03.570Z,27.38
2018-09-26T16:56:32.093Z,27.50
2018-09-26T16:59:00.791Z,26.10
2018-09-26T17:01:29.465Z,24.39
2018-09-26T17:03:58.030Z,23.21
2018-09-26T17:06:26.822Z,22.24
2018-09-26T17:08:55.545Z,21.57
2018-09-26T17:11:24.081Z,21.07
2018-09-26T17:13:52.628Z,20.55
2018-09-26T17:16:21.289Z,20.16
2018-09-26T17:18:49.932Z,19.78
2018-09-26T17:21:18.577Z,19.55
2018-09-26T17:23:47.110Z,19.35
2018-09-26T17:26:15.891Z,19.20
2018-09-26T17:28:44.406Z,19.04
2018-09-26T17:31:13.147Z,18.83
2018-09-26T17:33:41.936Z,18.60
2018-09-26T17:36:10.983Z,18.35
2018-09-26T17:38:39.916Z,18.12
2018-09-26T17:41:08.909Z,17.91
2018-09-26T17:43:37.745Z,17.67
2018-09-26T17:46:06.511Z,17.44
2018-09-26T17:48:35.030Z,17.24
2018-09-26T17:51:03.559Z,17.05
2018-09-26T17:53:33.074Z,16.90
2018-09-26T17:56:01.673Z,16.77
2018-09-26T17:58:30.231Z,16.62
2018-09-26T18:00:58.947Z,16.47
2018-09-26T18:03:27.476Z,16.33
2018-09-26T18:05:55.973Z,16.24
2018-09-26T18:08:24.837Z,16.16
2018-09-26T18:10:53.486Z,16.09
2018-09-26T18:13:22.222Z,15.96
2018-09-26T18:15:50.697Z,15.87
2018-09-26T18:18:19.257Z,15.78
2018-09-26T18:20:47.786Z,15.74
2018-09-26T18:23:16.313Z,15.71
2018-09-26T18:25:44.865Z,15.64
2018-09-26T18:28:13.346Z,15.56
2018-09-26T18:30:41.850Z,15.45
2018-09-26T18:33:10.856Z,15.41
2018-09-26T18:35:39.514Z,15.37
2018-09-26T18:38:08.014Z,15.37
2018-09-26T18:40:36.731Z,15.32
2018-09-26T18:43:05.415Z,15.25
2018-09-26T18:45:34.045Z,15.23
2018-09-26T18:48:02.512Z,15.31
2018-09-26T18:50:30.989Z,15.30
2018-09-26T18:52:59.701Z,15.20
2018-09-26T18:55:28.283Z,15.10
2018-09-26T18:57:56.830Z,14.96
2018-09-26T19:00:25.344Z,14.87
2018-09-26T19:02:54.057Z,14.77
2018-09-26T19:05:22.622Z,14.63
2018-09-26T19:07:51.655Z,14.52
2018-09-26T19:10:20.194Z,14.36
2018-09-26T19:12:48.880Z,14.29
2018-09-26T19:15:17.479Z,14.19
2018-09-26T19:17:46.335Z,14.10
2018-09-26T19:20:15.151Z,14.04
2018-09-26T19:22:43.828Z,14.00
2018-09-26T19:25:12.847Z,13.96
2018-09-26T19:27:42.529Z,13.98
2018-09-26T19:30:12.142Z,13.97
2018-09-26T19:32:40.800Z,13.91
2018-09-26T19:35:09.565Z,13.85
2018-09-26T19:37:38.242Z,13.75
2018-09-26T19:40:06.886Z,13.66
2018-09-26T19:42:35.531Z,13.57
2018-09-26T19:45:04.053Z,13.46
2018-09-26T19:47:32.914Z,13.36
2018-09-26T19:50:01.410Z,13.30
2018-09-26T19:52:29.935Z,13.23
2018-09-26T19:54:58.390Z,13.21
2018-09-26T19:57:26.831Z,13.18
2018-09-26T19:59:55.590Z,13.11
2018-09-26T20:02:24.133Z,13.04
2018-09-26T20:04:52.731Z,12.99
2018-09-26T20:07:21.208Z,12.96
2018-09-26T20:09:49.707Z,12.88
2018-09-26T20:12:18.134Z,12.82
2018-09-26T20:14:46.958Z,12.76
2018-09-26T20:17:15.441Z,12.71
2018-09-26T20:19:43.913Z,12.65
2018-09-26T20:22:12.591Z,12.60
2018-09-26T20:24:41.095Z,12.50
2018-09-26T20:27:10.374Z,12.42
2018-09-26T20:29:39.016Z,12.34
2018-09-26T20:32:07.654Z,12.25
2018-09-26T20:34:36.138Z,12.18
2018-09-26T20:37:04.776Z,12.14
2018-09-26T20:39:33.326Z,12.10
2018-09-26T20:42:02.248Z,12.04
2018-09-26T20:44:30.792Z,11.99
2018-09-26T20:46:59.311Z,11.94
2018-09-26T20:49:27.851Z,11.88
2018-09-26T20:51:56.570Z,11.86
2018-09-26T20:54:25.168Z,11.99
2018-09-26T20:56:53.686Z,12.13
2018-09-26T20:59:22.186Z,12.12
2018-09-26T21:01:50.682Z,12.14
2018-09-26T21:04:19.252Z,12.04
2018-09-26T21:06:47.873Z,11.90
2018-09-26T21:09:20.654Z,11.80
2018-09-26T21:11:49.272Z,11.68
2018-09-26T21:14:17.742Z,11.54
2018-09-26T21:16:46.359Z,11.43
2018-09-26T21:19:14.909Z,11.37
2018-09-26T21:21:43.740Z,11.26
2018-09-26T21:24:12.522Z,11.19
2018-09-26T21:26:40.994Z,11.14
2018-09-26T21:29:09.797Z,11.20
2018-09-26T21:31:38.274Z,11.15
2018-09-26T21:34:06.722Z,11.15
2018-09-26T21:36:35.243Z,11.16
2018-09-26T21:39:06.711Z,11.09
2018-09-26T21:41:35.291Z,11.05
2018-09-26T21:44:03.955Z,11.00
2018-09-26T21:46:32.567Z,10.99
2018-09-26T21:49:01.369Z,10.97
2018-09-26T21:51:30.085Z,10.93
2018-09-26T21:53:58.581Z,11.00
2018-09-26T21:56:27.081Z,11.00
2018-09-26T21:58:55.558Z,10.88
2018-09-26T22:01:28.247Z,10.88
2018-09-26T22:03:57.865Z,10.95
2018-09-26T22:06:26.574Z,11.00
2018-09-26T22:08:55.397Z,10.86
2018-09-26T22:11:24.020Z,10.72
2018-09-26T22:13:52.694Z,10.70
2018-09-26T22:16:21.489Z,10.64
2018-09-26T22:18:50.069Z,10.58
2018-09-26T22:21:18.546Z,10.55
2018-09-26T22:23:47.155Z,10.50
2018-09-26T22:26:15.710Z,10.49
2018-09-26T22:28:44.157Z,10.45
2018-09-26T22:31:12.986Z,10.38
2018-09-26T22:33:41.669Z,10.33
2018-09-26T22:36:10.325Z,10.25
2018-09-26T22:38:38.840Z,10.18
2018-09-26T22:41:07.418Z,10.16
2018-09-26T22:43:35.921Z,10.09
2018-09-26T22:46:04.367Z,10.05
2018-09-26T22:48:32.846Z,10.01
2018-09-26T22:51:01.302Z,9.95
2018-09-26T22:53:29.873Z,9.96
2018-09-26T22:55:58.338Z,9.98
2018-09-26T22:58:26.985Z,9.93
2018-09-26T23:00:55.478Z,9.85
2018-09-26T23:03:24.022Z,9.85
2018-09-26T23:05:52.478Z,9.83
2018-09-26T23:08:20.962Z,9.77
2018-09-26T23:10:49.465Z,9.78
2018-09-26T23:13:18.010Z,9.82
2018-09-26T23:15:46.577Z,9.78
2018-09-26T23:18:15.061Z,9.78
2018-09-26T23:20:43.474Z,9.82
2018-09-26T23:23:12.391Z,9.75
2018-09-26T23:25:40.917Z,9.76
2018-09-26T23:28:09.440Z,9.78
2018-09-26T23:30:37.870Z,9.75
2018-09-26T23:33:06.418Z,9.69
2018-09-26T23:35:34.854Z,9.59
2018-09-26T23:38:03.374Z,9.51
2018-09-26T23:40:31.898Z,9.49
2018-09-26T23:43:00.410Z,9.42
2018-09-26T23:45:28.854Z,9.35
2018-09-26T23:47:57.361Z,9.32
2018-09-26T23:50:25.929Z,9.23
2018-09-26T23:52:54.402Z,9.22
2018-09-26T23:55:22.910Z,9.28
2018-09-26T23:57:51.365Z,9.26
